PWSweather.com
Personal Weather Stations
Station Observations
KILMORRI1
Goose Lake, Morris, IL 60450

Goose LakeMorris, IL 60450

Lat: 41.34, Lon: -88.3

Elevation: 523

Station Type:

www.gooselakeweather.com

High Low Average
Temperature 32.9°F0.5°C 1.2°F-17.1°C 19.9°F-6.7°C
Dew Point 23.6°F-4.7°C -2.3°F-19.1°C 13.9°F-10.1°C
Winds 5.8 mph 9.3 kmh Calm Calm 2.0 mph SE3.2 kmh SE
Wind Gusts 10.4 mph16.7 kmh -- 3.0 mph4.8 kmh
Humidity 90% 50% 78%
Pressure 30.78 in1042.3 mb 30.27 in1025.1 mb -
Precipitation 0.00 in0.0 mm - -
Hour Temp Dew Point Humidity Winds Wind Gusts Pressure Precip Precip Rate Daily Precip Total
12:00 AM 1.2°F-17.1°C -2.3°F-19.1°C 85% Calm Calm -- 30.78 in1042.3 mb - 0.00 in0.0 mm 0.00 in0.0 mm
12:10 AM 1.3°F-17.1°C -2.2°F-19.0°C 85% Calm Calm -- 30.78 in1042.3 mb - 0.00 in0.0 mm 0.00 in0.0 mm
12:20 AM 2.3°F-16.5°C -1.2°F-18.4°C 85% Calm Calm -- 30.78 in1042.3 mb - 0.00 in0.0 mm 0.00 in0.0 mm
12:30 AM 2.7°F-16.3°C -0.8°F-18.2°C 85% Calm Calm -- 30.78 in1042.3 mb - 0.00 in0.0 mm 0.00 in0.0 mm
12:40 AM 2.3°F-16.5°C -1.2°F-18.4°C 85% Calm Calm -- 30.77 in1042.0 mb - 0.00 in0.0 mm 0.00 in0.0 mm
12:50 AM 3.2°F-16.0°C -0.3°F-17.9°C 85% Calm Calm -- 30.77 in1042.0 mb - 0.00 in0.0 mm 0.00 in0.0 mm
01:00 AM 3.7°F-15.7°C 0.2°F-17.7°C 85% Calm Calm -- 30.76 in1041.7 mb - 0.00 in0.0 mm 0.00 in0.0 mm
01:10 AM 4.1°F-15.5°C 0.9°F-17.3°C 86% 2.3 mph E3.7 kmh E 2.3 mph3.7 kmh 30.76 in1041.7 mb - 0.00 in0.0 mm 0.00 in0.0 mm
01:20 AM 6.0°F-14.4°C 2.7°F-16.3°C 86% 1.2 mph E1.9 kmh E 2.3 mph3.7 kmh 30.76 in1041.7 mb - 0.00 in0.0 mm 0.00 in0.0 mm
01:30 AM 6.4°F-14.2°C 3.1°F-16.1°C 86% 1.2 mph E1.9 kmh E 3.5 mph5.6 kmh 30.76 in1041.7 mb - 0.00 in0.0 mm 0.00 in0.0 mm
01:40 AM 6.5°F-14.2°C 3.2°F-16.0°C 86% 2.3 mph E3.7 kmh E 4.6 mph7.4 kmh 30.76 in1041.7 mb - 0.00 in0.0 mm 0.00 in0.0 mm
01:50 AM 8.5°F-13.1°C 5.4°F-14.8°C 87% 3.5 mph E5.6 kmh E 4.6 mph7.4 kmh 30.75 in1041.3 mb - 0.00 in0.0 mm 0.00 in0.0 mm
02:00 AM 9.9°F-12.3°C 6.8°F-14.0°C 87% 1.2 mph E1.9 kmh E 2.3 mph3.7 kmh 30.75 in1041.3 mb - 0.00 in0.0 mm 0.00 in0.0 mm
02:10 AM 10.1°F-12.2°C 7.1°F-13.8°C 87% 2.3 mph E3.7 kmh E 4.6 mph7.4 kmh 30.74 in1041.0 mb - 0.00 in0.0 mm 0.00 in0.0 mm
02:20 AM 12.2°F-11.0°C 9.3°F-12.6°C 88% 3.5 mph E5.6 kmh E 4.6 mph7.4 kmh 30.73 in1040.6 mb - 0.00 in0.0 mm 0.00 in0.0 mm
02:30 AM 13.4°F-10.3°C 10.5°F-11.9°C 88% 2.3 mph E3.7 kmh E 5.8 mph9.3 kmh 30.73 in1040.6 mb - 0.00 in0.0 mm 0.00 in0.0 mm
02:40 AM 13.4°F-10.3°C 10.5°F-11.9°C 88% 4.6 mph E7.4 kmh E 6.9 mph11.1 kmh 30.73 in1040.6 mb - 0.00 in0.0 mm 0.00 in0.0 mm
02:50 AM 13.0°F-10.6°C 9.9°F-12.3°C 87% 3.5 mph E5.6 kmh E 5.8 mph9.3 kmh 30.73 in1040.6 mb - 0.00 in0.0 mm 0.00 in0.0 mm
03:00 AM 11.7°F-11.3°C 8.3°F-13.2°C 86% 1.2 mph E1.9 kmh E 2.3 mph3.7 kmh 30.74 in1041.0 mb - 0.00 in0.0 mm 0.00 in0.0 mm
03:10 AM 10.9°F-11.7°C 7.5°F-13.6°C 86% Calm Calm -- 30.75 in1041.3 mb - 0.00 in0.0 mm 0.00 in0.0 mm
03:20 AM 9.9°F-12.3°C 6.5°F-14.2°C 86% Calm Calm -- 30.75 in1041.3 mb - 0.00 in0.0 mm 0.00 in0.0 mm
03:30 AM 8.7°F-12.9°C 5.2°F-14.9°C 85% 1.2 mph E1.9 kmh E 1.2 mph1.9 kmh 30.74 in1041.0 mb - 0.00 in0.0 mm 0.00 in0.0 mm
03:40 AM 7.8°F-13.4°C 4.5°F-15.3°C 86% Calm Calm -- 30.74 in1041.0 mb - 0.00 in0.0 mm 0.00 in0.0 mm
03:50 AM 6.2°F-14.3°C 2.7°F-16.3°C 85% Calm Calm -- 30.74 in1041.0 mb - 0.00 in0.0 mm 0.00 in0.0 mm
04:00 AM 5.3°F-14.8°C 1.8°F-16.8°C 85% 1.2 mph ENE1.9 kmh ENE 2.3 mph3.7 kmh 30.73 in1040.6 mb - 0.00 in0.0 mm 0.00 in0.0 mm
04:10 AM 6.5°F-14.2°C 3.5°F-15.8°C 87% Calm Calm -- 30.74 in1041.0 mb - 0.00 in0.0 mm 0.00 in0.0 mm
04:20 AM 6.4°F-14.2°C 2.8°F-16.2°C 85% Calm Calm 2.3 mph3.7 kmh 30.73 in1040.6 mb - 0.00 in0.0 mm 0.00 in0.0 mm
04:30 AM 6.4°F-14.2°C 3.1°F-16.1°C 86% Calm Calm 1.2 mph1.9 kmh 30.73 in1040.6 mb - 0.00 in0.0 mm 0.00 in0.0 mm
04:40 AM 5.7°F-14.6°C 2.4°F-16.4°C 86% 1.2 mph E1.9 kmh E 2.3 mph3.7 kmh 30.73 in1040.6 mb - 0.00 in0.0 mm 0.00 in0.0 mm
04:50 AM 5.7°F-14.6°C 2.5°F-16.4°C 86% Calm Calm -- 30.72 in1040.3 mb - 0.00 in0.0 mm 0.00 in0.0 mm
05:00 AM 6.1°F-14.4°C 2.8°F-16.2°C 86% Calm Calm 1.2 mph1.9 kmh 30.72 in1040.3 mb - 0.00 in0.0 mm 0.00 in0.0 mm
05:10 AM 6.7°F-14.1°C 3.4°F-15.9°C 86% 1.2 mph E1.9 kmh E 1.2 mph1.9 kmh 30.72 in1040.3 mb - 0.00 in0.0 mm 0.00 in0.0 mm
05:20 AM 8.0°F-13.3°C 4.9°F-15.1°C 87% 1.2 mph E1.9 kmh E 1.2 mph1.9 kmh 30.72 in1040.3 mb - 0.00 in0.0 mm 0.00 in0.0 mm
05:30 AM 8.2°F-13.2°C 5.2°F-14.9°C 87% 1.2 mph E1.9 kmh E 1.2 mph1.9 kmh 30.72 in1040.3 mb - 0.00 in0.0 mm 0.00 in0.0 mm
05:40 AM 8.7°F-12.9°C 5.6°F-14.7°C 87% 1.2 mph WNW1.9 kmh WNW 2.3 mph3.7 kmh 30.73 in1040.6 mb - 0.00 in0.0 mm 0.00 in0.0 mm
05:50 AM 8.1°F-13.3°C 4.8°F-15.1°C 86% 1.2 mph WNW1.9 kmh WNW 1.2 mph1.9 kmh 30.74 in1041.0 mb - 0.00 in0.0 mm 0.00 in0.0 mm
06:00 AM 7.9°F-13.4°C 4.6°F-15.2°C 86% Calm Calm -- 30.74 in1041.0 mb - 0.00 in0.0 mm 0.00 in0.0 mm
06:10 AM 6.9°F-13.9°C 3.6°F-15.8°C 86% Calm Calm 1.2 mph1.9 kmh 30.73 in1040.6 mb - 0.00 in0.0 mm 0.00 in0.0 mm
06:20 AM 6.6°F-14.1°C 3.0°F-16.1°C 85% Calm Calm -- 30.73 in1040.6 mb - 0.00 in0.0 mm 0.00 in0.0 mm
06:30 AM 7.2°F-13.8°C 3.9°F-15.6°C 86% 1.2 mph NW1.9 kmh NW 1.2 mph1.9 kmh 30.73 in1040.6 mb - 0.00 in0.0 mm 0.00 in0.0 mm
06:40 AM 8.2°F-13.2°C 5.1°F-14.9°C 87% 1.2 mph NW1.9 kmh NW 1.2 mph1.9 kmh 30.74 in1041.0 mb - 0.00 in0.0 mm 0.00 in0.0 mm
06:50 AM 9.4°F-12.6°C 6.3°F-14.3°C 87% 1.2 mph NW1.9 kmh NW 1.2 mph1.9 kmh 30.73 in1040.6 mb - 0.00 in0.0 mm 0.00 in0.0 mm
07:00 AM 10.4°F-12.0°C 7.5°F-13.6°C 88% 1.2 mph NW1.9 kmh NW 2.3 mph3.7 kmh 30.73 in1040.6 mb - 0.00 in0.0 mm 0.00 in0.0 mm
07:10 AM 11.8°F-11.2°C 9.0°F-12.8°C 88% Calm Calm 1.2 mph1.9 kmh 30.73 in1040.6 mb - 0.00 in0.0 mm 0.00 in0.0 mm
07:20 AM 12.5°F-10.8°C 9.6°F-12.4°C 88% 1.2 mph E1.9 kmh E 2.3 mph3.7 kmh 30.72 in1040.3 mb - 0.00 in0.0 mm 0.00 in0.0 mm
07:30 AM 12.9°F-10.6°C 10.0°F-12.2°C 88% 2.3 mph E3.7 kmh E 3.5 mph5.6 kmh 30.71 in1040.0 mb - 0.00 in0.0 mm 0.00 in0.0 mm
07:40 AM 14.5°F-9.7°C 11.9°F-11.2°C 89% 3.5 mph E5.6 kmh E 4.6 mph7.4 kmh 30.71 in1040.0 mb - 0.00 in0.0 mm 0.00 in0.0 mm
07:50 AM 14.9°F-9.5°C 12.0°F-11.1°C 88% 4.6 mph E7.4 kmh E 4.6 mph7.4 kmh 30.70 in1039.6 mb - 0.00 in0.0 mm 0.00 in0.0 mm
08:00 AM 15.2°F-9.3°C 12.3°F-10.9°C 88% 5.8 mph E9.3 kmh E 6.9 mph11.1 kmh 30.69 in1039.3 mb - 0.00 in0.0 mm 0.00 in0.0 mm
08:10 AM 15.6°F-9.1°C 12.7°F-10.7°C 88% 5.8 mph E9.3 kmh E 6.9 mph11.1 kmh 30.69 in1039.3 mb - 0.00 in0.0 mm 0.00 in0.0 mm
08:20 AM 16.2°F-8.8°C 13.3°F-10.4°C 88% 4.6 mph E7.4 kmh E 6.9 mph11.1 kmh 30.68 in1038.9 mb - 0.00 in0.0 mm 0.00 in0.0 mm
08:30 AM 16.7°F-8.5°C 13.5°F-10.3°C 87% 4.6 mph E7.4 kmh E 6.9 mph11.1 kmh 30.67 in1038.6 mb - 0.00 in0.0 mm 0.00 in0.0 mm
08:40 AM 17.9°F-7.8°C 14.2°F-9.9°C 85% 5.8 mph E9.3 kmh E 8.1 mph13.0 kmh 30.67 in1038.6 mb - 0.00 in0.0 mm 0.00 in0.0 mm
08:50 AM 19.1°F-7.2°C 14.0°F-10.0°C 80% 3.5 mph ESE5.6 kmh ESE 4.6 mph7.4 kmh 30.66 in1038.3 mb - 0.00 in0.0 mm 0.00 in0.0 mm
09:00 AM 20.5°F-6.4°C 14.8°F-9.6°C 78% 5.8 mph SE9.3 kmh SE 10.4 mph16.7 kmh 30.65 in1037.9 mb - 0.00 in0.0 mm 0.00 in0.0 mm
09:10 AM 21.2°F-6.0°C 14.8°F-9.6°C 76% 5.8 mph ESE9.3 kmh ESE 6.9 mph11.1 kmh 30.64 in1037.6 mb - 0.00 in0.0 mm 0.00 in0.0 mm
09:20 AM 21.4°F-5.9°C 14.7°F-9.6°C 75% 4.6 mph ESE7.4 kmh ESE 6.9 mph11.1 kmh 30.64 in1037.6 mb - 0.00 in0.0 mm 0.00 in0.0 mm
09:30 AM 21.7°F-5.7°C 14.7°F-9.6°C 74% 3.5 mph E5.6 kmh E 5.8 mph9.3 kmh 30.64 in1037.6 mb - 0.00 in0.0 mm 0.00 in0.0 mm
09:40 AM 21.8°F-5.7°C 14.8°F-9.6°C 74% 5.8 mph E9.3 kmh E 6.9 mph11.1 kmh 30.63 in1037.3 mb - 0.00 in0.0 mm 0.00 in0.0 mm
09:50 AM 22.5°F-5.3°C 15.5°F-9.2°C 74% 2.3 mph E3.7 kmh E 4.6 mph7.4 kmh 30.63 in1037.3 mb - 0.00 in0.0 mm 0.00 in0.0 mm
10:00 AM 23.8°F-4.6°C 15.8°F-9.0°C 71% 2.3 mph NE3.7 kmh NE 3.5 mph5.6 kmh 30.63 in1037.3 mb - 0.00 in0.0 mm 0.00 in0.0 mm
10:10 AM 24.3°F-4.3°C 15.9°F-8.9°C 70% 2.3 mph NE3.7 kmh NE 2.3 mph3.7 kmh 30.63 in1037.3 mb - 0.00 in0.0 mm 0.00 in0.0 mm
10:20 AM 24.4°F-4.2°C 15.7°F-9.1°C 69% 1.2 mph NE1.9 kmh NE 1.2 mph1.9 kmh 30.63 in1037.3 mb - 0.00 in0.0 mm 0.00 in0.0 mm
10:30 AM 25.8°F-3.4°C 16.3°F-8.7°C 67% 3.5 mph S5.6 kmh S 5.8 mph9.3 kmh 30.63 in1037.3 mb - 0.00 in0.0 mm 0.00 in0.0 mm
10:40 AM 28.0°F-2.2°C 15.9°F-8.9°C 60% 3.5 mph S5.6 kmh S 5.8 mph9.3 kmh 30.62 in1036.9 mb - 0.00 in0.0 mm 0.00 in0.0 mm
10:50 AM 28.6°F-1.9°C 15.7°F-9.1°C 58% 3.5 mph SE5.6 kmh SE 3.5 mph5.6 kmh 30.61 in1036.6 mb - 0.00 in0.0 mm 0.00 in0.0 mm
11:00 AM 29.0°F-1.7°C 15.6°F-9.1°C 57% 3.5 mph ESE5.6 kmh ESE 5.8 mph9.3 kmh 30.60 in1036.2 mb - 0.00 in0.0 mm 0.00 in0.0 mm
11:10 AM 29.7°F-1.3°C 15.5°F-9.2°C 55% 3.5 mph ESE5.6 kmh ESE 4.6 mph7.4 kmh 30.59 in1035.9 mb - 0.00 in0.0 mm 0.00 in0.0 mm
11:20 AM 30.1°F-1.1°C 15.4°F-9.2°C 54% 2.3 mph SE3.7 kmh SE 3.5 mph5.6 kmh 30.59 in1035.9 mb - 0.00 in0.0 mm 0.00 in0.0 mm
11:30 AM 30.2°F-1.0°C 13.8°F-10.1°C 50% 3.5 mph S5.6 kmh S 5.8 mph9.3 kmh 30.58 in1035.6 mb - 0.00 in0.0 mm 0.00 in0.0 mm
11:40 AM 30.6°F-0.8°C 14.6°F-9.7°C 51% 2.3 mph SE3.7 kmh SE 4.6 mph7.4 kmh 30.57 in1035.2 mb - 0.00 in0.0 mm 0.00 in0.0 mm
11:50 AM 30.2°F-1.0°C 14.2°F-9.9°C 51% 4.6 mph SSE7.4 kmh SSE 5.8 mph9.3 kmh 30.57 in1035.2 mb - 0.00 in0.0 mm 0.00 in0.0 mm
12:00 PM 31.3°F-0.4°C 16.1°F-8.8°C 53% 1.2 mph ESE1.9 kmh ESE 2.3 mph3.7 kmh 30.56 in1034.9 mb - 0.00 in0.0 mm 0.00 in0.0 mm
12:10 PM 31.4°F-0.3°C 16.2°F-8.8°C 53% 4.6 mph S7.4 kmh S 5.8 mph9.3 kmh 30.56 in1034.9 mb - 0.00 in0.0 mm 0.00 in0.0 mm
12:20 PM 31.5°F-0.3°C 17.6°F-8.0°C 56% 3.5 mph ESE5.6 kmh ESE 5.8 mph9.3 kmh 30.54 in1034.2 mb - 0.00 in0.0 mm 0.00 in0.0 mm
12:30 PM 31.6°F-0.2°C 17.7°F-7.9°C 56% 2.3 mph S3.7 kmh S 3.5 mph5.6 kmh 30.53 in1033.9 mb - 0.00 in0.0 mm 0.00 in0.0 mm
12:40 PM 32.4°F0.2°C 18.0°F-7.8°C 55% 2.3 mph S3.7 kmh S 4.6 mph7.4 kmh 30.52 in1033.5 mb - 0.00 in0.0 mm 0.00 in0.0 mm
12:50 PM 31.8°F-0.1°C 18.7°F-7.4°C 58% 2.3 mph SE3.7 kmh SE 3.5 mph5.6 kmh 30.52 in1033.5 mb - 0.00 in0.0 mm 0.00 in0.0 mm
01:00 PM 32.0°F0.0°C 18.4°F-7.6°C 57% 3.5 mph SE5.6 kmh SE 3.5 mph5.6 kmh 30.50 in1032.8 mb - 0.00 in0.0 mm 0.00 in0.0 mm
01:10 PM 31.7°F-0.2°C 19.4°F-7.0°C 60% 4.6 mph ESE7.4 kmh ESE 8.1 mph13.0 kmh 30.48 in1032.2 mb - 0.00 in0.0 mm 0.00 in0.0 mm
01:20 PM 31.3°F-0.4°C 19.0°F-7.2°C 60% 3.5 mph SE5.6 kmh SE 4.6 mph7.4 kmh 30.48 in1032.2 mb - 0.00 in0.0 mm 0.00 in0.0 mm
01:30 PM 31.4°F-0.3°C 19.5°F-6.9°C 61% 3.5 mph SSE5.6 kmh SSE 4.6 mph7.4 kmh 30.47 in1031.8 mb - 0.00 in0.0 mm 0.00 in0.0 mm
01:40 PM 31.6°F-0.2°C 19.6°F-6.9°C 61% 3.5 mph SSE5.6 kmh SSE 4.6 mph7.4 kmh 30.46 in1031.5 mb - 0.00 in0.0 mm 0.00 in0.0 mm
01:50 PM 31.9°F-0.1°C 20.0°F-6.7°C 61% 2.3 mph SE3.7 kmh SE 4.6 mph7.4 kmh 30.45 in1031.2 mb - 0.00 in0.0 mm 0.00 in0.0 mm
02:00 PM 31.9°F-0.1°C 20.0°F-6.7°C 61% 2.3 mph SSE3.7 kmh SSE 3.5 mph5.6 kmh 30.45 in1031.2 mb - 0.00 in0.0 mm 0.00 in0.0 mm
02:10 PM 31.9°F-0.1°C 20.7°F-6.3°C 63% 3.5 mph ESE5.6 kmh ESE 5.8 mph9.3 kmh 30.44 in1030.8 mb - 0.00 in0.0 mm 0.00 in0.0 mm
02:20 PM 32.0°F0.0°C 21.2°F-6.0°C 64% 3.5 mph SE5.6 kmh SE 6.9 mph11.1 kmh 30.43 in1030.5 mb - 0.00 in0.0 mm 0.00 in0.0 mm
02:30 PM 31.8°F-0.1°C 21.4°F-5.9°C 65% 3.5 mph SE5.6 kmh SE 4.6 mph7.4 kmh 30.43 in1030.5 mb - 0.00 in0.0 mm 0.00 in0.0 mm
02:40 PM 32.3°F0.2°C 22.5°F-5.3°C 67% 3.5 mph SE5.6 kmh SE 4.6 mph7.4 kmh 30.42 in1030.1 mb - 0.00 in0.0 mm 0.00 in0.0 mm
02:50 PM 32.1°F0.1°C 22.7°F-5.2°C 68% 3.5 mph SSE5.6 kmh SSE 3.5 mph5.6 kmh 30.42 in1030.1 mb - 0.00 in0.0 mm 0.00 in0.0 mm
03:00 PM 32.3°F0.2°C 22.9°F-5.1°C 68% 3.5 mph SE5.6 kmh SE 5.8 mph9.3 kmh 30.41 in1029.8 mb - 0.00 in0.0 mm 0.00 in0.0 mm
03:10 PM 32.5°F0.3°C 23.5°F-4.7°C 69% 2.3 mph ESE3.7 kmh ESE 5.8 mph9.3 kmh 30.41 in1029.8 mb - 0.00 in0.0 mm 0.00 in0.0 mm
03:20 PM 32.5°F0.3°C 23.5°F-4.7°C 69% 4.6 mph ESE7.4 kmh ESE 6.9 mph11.1 kmh 30.40 in1029.5 mb - 0.00 in0.0 mm 0.00 in0.0 mm
03:30 PM 32.6°F0.3°C 23.6°F-4.7°C 69% 4.6 mph SE7.4 kmh SE 8.1 mph13.0 kmh 30.39 in1029.1 mb - 0.00 in0.0 mm 0.00 in0.0 mm
03:40 PM 32.9°F0.5°C 23.5°F-4.7°C 68% 3.5 mph ESE5.6 kmh ESE 6.9 mph11.1 kmh 30.39 in1029.1 mb - 0.00 in0.0 mm 0.00 in0.0 mm
03:50 PM 32.9°F0.5°C 23.4°F-4.8°C 68% 2.3 mph ESE3.7 kmh ESE 4.6 mph7.4 kmh 30.39 in1029.1 mb - 0.00 in0.0 mm 0.00 in0.0 mm
04:00 PM 32.6°F0.3°C 23.5°F-4.7°C 69% 2.3 mph SE3.7 kmh SE 3.5 mph5.6 kmh 30.39 in1029.1 mb - 0.00 in0.0 mm 0.00 in0.0 mm
04:10 PM 32.6°F0.3°C 23.5°F-4.7°C 69% 2.3 mph ESE3.7 kmh ESE 3.5 mph5.6 kmh 30.38 in1028.8 mb - 0.00 in0.0 mm 0.00 in0.0 mm
04:20 PM 32.0°F0.0°C 23.3°F-4.8°C 70% 2.3 mph E3.7 kmh E 3.5 mph5.6 kmh 30.39 in1029.1 mb - 0.00 in0.0 mm 0.00 in0.0 mm
04:30 PM 31.7°F-0.2°C 23.4°F-4.8°C 71% 1.2 mph SE1.9 kmh SE 3.5 mph5.6 kmh 30.38 in1028.8 mb - 0.00 in0.0 mm 0.00 in0.0 mm
04:40 PM 32.1°F0.1°C 23.4°F-4.8°C 70% 3.5 mph E5.6 kmh E 4.6 mph7.4 kmh 30.38 in1028.8 mb - 0.00 in0.0 mm 0.00 in0.0 mm
04:50 PM 31.1°F-0.5°C 22.8°F-5.1°C 71% Calm Calm 1.2 mph1.9 kmh 30.38 in1028.8 mb - 0.00 in0.0 mm 0.00 in0.0 mm
05:00 PM 30.8°F-0.7°C 22.9°F-5.1°C 72% 1.2 mph E1.9 kmh E 2.3 mph3.7 kmh 30.38 in1028.8 mb - 0.00 in0.0 mm 0.00 in0.0 mm
05:10 PM 29.6°F-1.3°C 21.6°F-5.8°C 72% Calm Calm -- 30.38 in1028.8 mb - 0.00 in0.0 mm 0.00 in0.0 mm
05:20 PM 28.8°F-1.8°C 21.5°F-5.8°C 74% Calm Calm -- 30.38 in1028.8 mb - 0.00 in0.0 mm 0.00 in0.0 mm
05:30 PM 27.2°F-2.7°C 20.9°F-6.2°C 77% Calm Calm 1.2 mph1.9 kmh 30.38 in1028.8 mb - 0.00 in0.0 mm 0.00 in0.0 mm
05:40 PM 26.0°F-3.3°C 20.1°F-6.6°C 78% Calm Calm -- 30.38 in1028.8 mb - 0.00 in0.0 mm 0.00 in0.0 mm
05:50 PM 25.1°F-3.8°C 19.5°F-6.9°C 79% Calm Calm -- 30.39 in1029.1 mb - 0.00 in0.0 mm 0.00 in0.0 mm
06:00 PM 24.2°F-4.3°C 18.9°F-7.3°C 80% 1.2 mph E1.9 kmh E 1.2 mph1.9 kmh 30.38 in1028.8 mb - 0.00 in0.0 mm 0.00 in0.0 mm
06:10 PM 23.2°F-4.9°C 18.2°F-7.7°C 81% Calm Calm 1.2 mph1.9 kmh 30.37 in1028.4 mb - 0.00 in0.0 mm 0.00 in0.0 mm
06:20 PM 22.4°F-5.3°C 17.2°F-8.2°C 80% 1.2 mph E1.9 kmh E 1.2 mph1.9 kmh 30.37 in1028.4 mb - 0.00 in0.0 mm 0.00 in0.0 mm
06:30 PM 22.3°F-5.4°C 17.7°F-7.9°C 82% 1.2 mph E1.9 kmh E 2.3 mph3.7 kmh 30.36 in1028.1 mb - 0.00 in0.0 mm 0.00 in0.0 mm
06:40 PM 22.0°F-5.6°C 17.3°F-8.2°C 82% Calm Calm 1.2 mph1.9 kmh 30.35 in1027.8 mb - 0.00 in0.0 mm 0.00 in0.0 mm
06:50 PM 22.4°F-5.3°C 18.0°F-7.8°C 83% Calm Calm 1.2 mph1.9 kmh 30.35 in1027.8 mb - 0.00 in0.0 mm 0.00 in0.0 mm
07:00 PM 22.1°F-5.5°C 17.7°F-7.9°C 83% Calm Calm -- 30.35 in1027.8 mb - 0.00 in0.0 mm 0.00 in0.0 mm
07:10 PM 21.4°F-5.9°C 17.3°F-8.2°C 84% Calm Calm -- 30.35 in1027.8 mb - 0.00 in0.0 mm 0.00 in0.0 mm
07:20 PM 20.5°F-6.4°C 16.7°F-8.5°C 85% Calm Calm -- 30.35 in1027.8 mb - 0.00 in0.0 mm 0.00 in0.0 mm
07:30 PM 18.9°F-7.3°C 14.8°F-9.6°C 84% Calm Calm -- 30.34 in1027.4 mb - 0.00 in0.0 mm 0.00 in0.0 mm
07:40 PM 19.5°F-6.9°C 16.0°F-8.9°C 86% Calm Calm -- 30.34 in1027.4 mb - 0.00 in0.0 mm 0.00 in0.0 mm
07:50 PM 17.9°F-7.8°C 14.2°F-9.9°C 85% Calm Calm -- 30.33 in1027.1 mb - 0.00 in0.0 mm 0.00 in0.0 mm
08:00 PM 16.9°F-8.4°C 13.4°F-10.3°C 86% Calm Calm -- 30.34 in1027.4 mb - 0.00 in0.0 mm 0.00 in0.0 mm
08:10 PM 16.3°F-8.7°C 12.9°F-10.6°C 86% Calm Calm -- 30.33 in1027.1 mb - 0.00 in0.0 mm 0.00 in0.0 mm
08:20 PM 17.3°F-8.2°C 14.3°F-9.8°C 88% 1.2 mph E1.9 kmh E 2.3 mph3.7 kmh 30.32 in1026.8 mb - 0.00 in0.0 mm 0.00 in0.0 mm
08:30 PM 20.1°F-6.6°C 17.4°F-8.1°C 89% 1.2 mph S1.9 kmh S 3.5 mph5.6 kmh 30.32 in1026.8 mb - 0.00 in0.0 mm 0.00 in0.0 mm
08:40 PM 22.5°F-5.3°C 19.5°F-6.9°C 88% 1.2 mph S1.9 kmh S 2.3 mph3.7 kmh 30.32 in1026.8 mb - 0.00 in0.0 mm 0.00 in0.0 mm
08:50 PM 23.2°F-4.9°C 20.2°F-6.6°C 88% Calm Calm 1.2 mph1.9 kmh 30.32 in1026.8 mb - 0.00 in0.0 mm 0.00 in0.0 mm
09:00 PM 20.6°F-6.3°C 17.1°F-8.3°C 86% Calm Calm -- 30.32 in1026.8 mb - 0.00 in0.0 mm 0.00 in0.0 mm
09:10 PM 19.5°F-6.9°C 16.0°F-8.9°C 86% Calm Calm 1.2 mph1.9 kmh 30.32 in1026.8 mb - 0.00 in0.0 mm 0.00 in0.0 mm
09:20 PM 19.1°F-7.2°C 15.8°F-9.0°C 87% Calm Calm -- 30.32 in1026.8 mb - 0.00 in0.0 mm 0.00 in0.0 mm
09:30 PM 17.4°F-8.1°C 14.2°F-9.9°C 87% 1.2 mph SSW1.9 kmh SSW 2.3 mph3.7 kmh 30.32 in1026.8 mb - 0.00 in0.0 mm 0.00 in0.0 mm
09:40 PM 17.8°F-7.9°C 14.8°F-9.6°C 88% 1.2 mph S1.9 kmh S 3.5 mph5.6 kmh 30.31 in1026.4 mb - 0.00 in0.0 mm 0.00 in0.0 mm
09:50 PM 22.1°F-5.5°C 19.6°F-6.9°C 90% 2.3 mph S3.7 kmh S 4.6 mph7.4 kmh 30.31 in1026.4 mb - 0.00 in0.0 mm 0.00 in0.0 mm
10:00 PM 25.1°F-3.8°C 22.6°F-5.2°C 90% 3.5 mph S5.6 kmh S 3.5 mph5.6 kmh 30.31 in1026.4 mb - 0.00 in0.0 mm 0.00 in0.0 mm
10:10 PM 25.5°F-3.6°C 22.5°F-5.3°C 88% 3.5 mph SSW5.6 kmh SSW 4.6 mph7.4 kmh 30.30 in1026.1 mb - 0.00 in0.0 mm 0.00 in0.0 mm
10:20 PM 25.4°F-3.7°C 22.1°F-5.5°C 87% 4.6 mph S7.4 kmh S 6.9 mph11.1 kmh 30.30 in1026.1 mb - 0.00 in0.0 mm 0.00 in0.0 mm
10:30 PM 25.4°F-3.7°C 22.1°F-5.5°C 87% 3.5 mph SSW5.6 kmh SSW 4.6 mph7.4 kmh 30.29 in1025.7 mb - 0.00 in0.0 mm 0.00 in0.0 mm
10:40 PM 25.8°F-3.4°C 22.4°F-5.3°C 87% 4.6 mph S7.4 kmh S 8.1 mph13.0 kmh 30.29 in1025.7 mb - 0.00 in0.0 mm 0.00 in0.0 mm
10:50 PM 25.8°F-3.4°C 22.2°F-5.4°C 86% 2.3 mph S3.7 kmh S 3.5 mph5.6 kmh 30.29 in1025.7 mb - 0.00 in0.0 mm 0.00 in0.0 mm
11:00 PM 25.5°F-3.6°C 21.9°F-5.6°C 86% 3.5 mph S5.6 kmh S 3.5 mph5.6 kmh 30.29 in1025.7 mb - 0.00 in0.0 mm 0.00 in0.0 mm
11:10 PM 25.1°F-3.8°C 21.5°F-5.8°C 86% 2.3 mph S3.7 kmh S 4.6 mph7.4 kmh 30.28 in1025.4 mb - 0.00 in0.0 mm 0.00 in0.0 mm
11:20 PM 25.0°F-3.9°C 21.7°F-5.7°C 87% 2.3 mph SSW3.7 kmh SSW 3.5 mph5.6 kmh 30.28 in1025.4 mb - 0.00 in0.0 mm 0.00 in0.0 mm
11:30 PM 25.1°F-3.8°C 21.8°F-5.7°C 87% 3.5 mph S5.6 kmh S 4.6 mph7.4 kmh 30.28 in1025.4 mb - 0.00 in0.0 mm 0.00 in0.0 mm
11:40 PM 25.8°F-3.4°C 22.4°F-5.3°C 87% 4.6 mph S7.4 kmh S 5.8 mph9.3 kmh 30.27 in1025.1 mb - 0.00 in0.0 mm 0.00 in0.0 mm
11:50 PM 25.8°F-3.4°C 22.5°F-5.3°C 87% 4.6 mph S7.4 kmh S 6.9 mph11.1 kmh 30.27 in1025.1 mb - 0.00 in0.0 mm 0.00 in0.0 mm